Cuneyt Solakoglu — TCTN4 — position and weather

sailwx.info

Track history (hours):
 
Tides and Currents Weather Stations Pressure Air Temp Water Temp Dewpoint Dewpoint Depression Visibility Wind Speed Wind Dir Waves Ship Positions

Cuneyt Solakoglu

Last reported at 2015-Aug-02 14:28 UTC. Time now 2015-Aug-03 04:34 UTC.
Position N 40°46' E 018°03'.

Length 193 m; draft 6 m.

Type: Ship (hazmat cat A). MMSI: 271002676.

Date/timePositionNaut miles runAvg speedWind from/ knotsBaromVisibWave heightAir tempDewpointWater temp
2015-Aug-02 14:28N 40°46' E 018°03'  
2015-Jul-31 08:34N 40°01' E 019°02'3919.7
2015-Jul-31 06:33N 39°26' E 019°26'25217.4
2015-Jul-30 16:06N 36°34' E 023°20'1120.3
2015-Jul-30 15:33N 36°43' E 023°27'2019.8
2015-Jul-30 14:33N 36°60' E 023°41'2020.0
2015-Jul-30 13:34N 37°16' E 023°55'4019.9
2015-Jul-30 11:33N 37°49' E 024°25'  
2015-Jul-27 16:15N 37°48' E 024°32'2318.9
2015-Jul-27 15:03N 37°28' E 024°18'918.9
2015-Jul-27 14:33N 37°21' E 024°10'1919.2
2015-Jul-27 13:33N 37°05' E 023°56'1919.3
2015-Jul-27 12:33N 36°50' E 023°41'2019.6
2015-Jul-27 11:33N 36°35' E 023°25'31417.3
2015-Jul-26 17:24N 40°12' E 018°36'  
Track history (hours):
 
Tides and Currents Weather Stations Pressure Air Temp Water Temp Dewpoint Dewpoint Depression Visibility Wind Speed Wind Dir Waves Ship Positions

Cuneyt Solakoglu

Last reported at 2015-Aug-02 14:28 UTC. Time now 2015-Aug-03 04:34 UTC.
Position N 40°46' E 018°03'.

Length 193 m; draft 6 m.

Type: Ship (hazmat cat A). MMSI: 271002676.

Date/timePositionNaut miles runAvg speedWind from/ knotsBaromVisibWave heightAir tempDewpointWater temp
2015-Aug-02 14:28N 40°46' E 018°03'  
2015-Jul-31 08:34N 40°01' E 019°02'3919.7
2015-Jul-31 06:33N 39°26' E 019°26'25217.4
2015-Jul-30 16:06N 36°34' E 023°20'1120.3
2015-Jul-30 15:33N 36°43' E 023°27'2019.8
2015-Jul-30 14:33N 36°60' E 023°41'2020.0
2015-Jul-30 13:34N 37°16' E 023°55'4019.9
2015-Jul-30 11:33N 37°49' E 024°25'  
2015-Jul-27 16:15N 37°48' E 024°32'2318.9
2015-Jul-27 15:03N 37°28' E 024°18'918.9
2015-Jul-27 14:33N 37°21' E 024°10'1919.2
2015-Jul-27 13:33N 37°05' E 023°56'1919.3
2015-Jul-27 12:33N 36°50' E 023°41'2019.6
2015-Jul-27 11:33N 36°35' E 023°25'31417.3
2015-Jul-26 17:24N 40°12' E 018°36'  

Dump ship's entire track history